Chiba, Japan
Current Conditions -  °F | °C
As of 6:00 PM on Friday 31 Oct 2014 (Local Time) from RJAA Reporting Station
Broken Clouds Broken Clouds  
Wind Chill: 63°   Ceiling: 13000
Heat Index: 63°   Visibility: 6mi
Dew Point: 59°   Wind: 2mph
Humidity: 88%   Direction: 120°ESE
Pressure: 30.18"   Gusts: NA
Location:  35.61°N, 140.11°E
Report Text: RJAA 310900Z 12002KT 9000 FEW020 SCT070 BKN130 17/15 Q1022 NOSIG
Loading
Personal Weather Stations






























Interactive Weather Map
Tropical Storm Tracking
New forecast layout! Learn more

10-Day Weather Forecast

Advertisements
Track Severe Weather on mobile